createdAt,value
2018-01-28T00:01:56.818Z,93.30
2018-01-28T00:04:26.701Z,93.70
2018-01-28T00:07:06.160Z,93.50
2018-01-28T00:09:58.302Z,93.70
2018-01-28T00:12:37.645Z,94.00
2018-01-28T00:15:05.571Z,93.90
2018-01-28T00:17:33.984Z,94.40
2018-01-28T00:20:04.447Z,94.40
2018-01-28T00:33:50.216Z,95.60
2018-01-28T00:39:20.840Z,95.70
2018-01-28T00:44:50.634Z,95.80
2018-01-28T00:47:19.683Z,95.70
2018-01-28T00:49:48.833Z,96.00
2018-01-28T00:52:28.592Z,96.10
2018-01-28T00:55:11.494Z,96.10
2018-01-28T01:00:50.179Z,96.00
2018-01-28T01:06:37.417Z,96.30
2018-01-28T01:12:13.282Z,96.60
2018-01-28T01:14:44.041Z,96.90
2018-01-28T01:17:11.467Z,96.80
2018-01-28T01:19:50.057Z,96.70
2018-01-28T01:24:55.395Z,96.80
2018-01-28T01:27:43.848Z,96.70
2018-01-28T01:30:10.566Z,96.70
2018-01-28T01:32:37.856Z,96.70
2018-01-28T01:35:20.376Z,96.80
2018-01-28T01:37:46.729Z,96.80
2018-01-28T01:40:13.684Z,96.80
2018-01-28T01:45:58.766Z,96.60
2018-01-28T01:48:35.686Z,96.70
2018-01-28T01:51:04.161Z,96.80
2018-01-28T01:53:32.219Z,97.00
2018-01-28T01:56:05.290Z,97.00
2018-01-28T01:58:35.822Z,97.10
2018-01-28T02:01:05.433Z,97.30
2018-01-28T02:03:35.265Z,97.40
2018-01-28T02:06:04.636Z,97.40
2018-01-28T02:08:34.852Z,97.50
2018-01-28T02:11:02.551Z,97.70
2018-01-28T02:13:28.810Z,97.50
2018-01-28T02:16:02.302Z,97.70
2018-01-28T02:18:29.072Z,97.70
2018-01-28T02:20:55.235Z,97.80
2018-01-28T02:23:21.372Z,97.90
2018-01-28T02:25:47.754Z,97.70
2018-01-28T02:28:24.017Z,97.90
2018-01-28T02:30:50.462Z,98.00
2018-01-28T02:33:16.982Z,98.00
2018-01-28T02:35:43.135Z,98.10
2018-01-28T02:43:45.481Z,98.10
2018-01-28T02:46:20.595Z,98.10
2018-01-28T02:48:47.015Z,98.30
2018-01-28T02:54:13.627Z,98.30
2018-01-28T02:56:40.548Z,98.30
2018-01-28T02:59:07.266Z,98.20
2018-01-28T03:01:35.236Z,98.20
2018-01-28T03:06:58.855Z,98.30
2018-01-28T03:09:26.088Z,98.30
2018-01-28T03:11:52.233Z,98.20
2018-01-28T03:14:18.457Z,98.10
2018-01-28T03:16:44.683Z,98.10
2018-01-28T03:19:21.364Z,98.30
2018-01-28T03:21:47.544Z,98.30
2018-01-28T03:24:30.898Z,98.40
2018-01-28T03:27:21.074Z,98.40
2018-01-28T03:29:47.275Z,98.20
2018-01-28T03:32:13.501Z,98.20
2018-01-28T03:34:52.598Z,98.10
2018-01-28T03:37:19.014Z,98.10
2018-01-28T03:39:45.337Z,98.40
2018-01-28T03:42:11.528Z,98.30
2018-01-28T03:44:46.378Z,98.40
2018-01-28T03:47:12.736Z,98.40
2018-01-28T03:49:50.765Z,98.20
2018-01-28T03:52:17.426Z,98.50
2018-01-28T03:54:58.865Z,98.40
2018-01-28T04:00:23.850Z,98.50
2018-01-28T04:02:50.301Z,98.50
2018-01-28T04:05:16.615Z,98.30
2018-01-28T04:07:43.053Z,98.50
2018-01-28T04:10:20.062Z,98.40
2018-01-28T04:12:46.406Z,98.40
2018-01-28T04:15:12.755Z,98.40
2018-01-28T04:17:39.147Z,98.10
2018-01-28T04:20:05.560Z,98.30
2018-01-28T04:25:41.535Z,98.40
2018-01-28T04:28:20.196Z,98.40
2018-01-28T04:30:46.451Z,98.50
2018-01-28T04:33:22.963Z,98.50
2018-01-28T04:35:49.120Z,98.60
2018-01-28T04:38:21.246Z,98.50
2018-01-28T04:40:47.479Z,98.50
2018-01-28T04:43:13.626Z,98.50
2018-01-28T04:45:50.648Z,98.50
2018-01-28T04:48:16.988Z,98.60
2018-01-28T04:50:43.383Z,98.80
2018-01-28T04:58:47.726Z,98.90
2018-01-28T05:01:14.223Z,98.70
2018-01-28T05:03:40.597Z,98.70
2018-01-28T05:06:20.581Z,98.60
2018-01-28T05:08:47.080Z,98.70
2018-01-28T05:11:20.124Z,98.80
2018-01-28T05:14:01.350Z,98.70
2018-01-28T05:16:32.837Z,98.70
2018-01-28T05:22:20.189Z,98.80
2018-01-28T05:24:46.424Z,98.60
2018-01-28T05:27:12.603Z,98.60
2018-01-28T05:29:52.067Z,98.70
2018-01-28T05:32:19.009Z,98.60
2018-01-28T05:49:56.890Z,98.90
2018-01-28T05:52:23.311Z,99.00
2018-01-28T05:57:47.221Z,98.80
2018-01-28T06:00:13.651Z,99.10
2018-01-28T06:03:00.163Z,99.00
2018-01-28T06:11:16.499Z,99.00
2018-01-28T06:13:50.208Z,99.20
2018-01-28T06:16:16.686Z,99.20
2018-01-28T06:18:43.951Z,99.10
2018-01-28T06:24:20.141Z,99.10
2018-01-28T06:26:46.673Z,99.30
2018-01-28T06:32:12.596Z,99.20
2018-01-28T06:34:49.996Z,99.30
2018-01-28T06:37:22.690Z,99.40
2018-01-28T06:39:48.821Z,99.20
2018-01-28T06:42:21.459Z,99.40
2018-01-28T06:44:51.363Z,99.30
2018-01-28T06:47:17.688Z,99.20
2018-01-28T06:49:49.956Z,99.30
2018-01-28T06:55:24.296Z,99.20
2018-01-28T06:57:50.626Z,99.40
2018-01-28T07:00:20.459Z,99.40
2018-01-28T07:05:57.373Z,99.60
2018-01-28T07:08:40.445Z,99.50
2018-01-28T07:11:34.615Z,99.70
2018-01-28T07:14:10.964Z,99.70
2018-01-28T07:16:48.261Z,99.80
2018-01-28T07:31:05.922Z,99.80
2018-01-28T07:33:34.268Z,99.70
2018-01-28T07:36:05.322Z,99.90
2018-01-28T07:38:35.963Z,99.90
2018-01-28T07:41:06.203Z,99.90
2018-01-28T07:43:48.492Z,99.90
2018-01-28T07:46:30.994Z,99.90
2018-01-28T07:54:50.717Z,99.90
2018-01-28T07:57:36.357Z,99.70
2018-01-28T08:00:06.160Z,99.60
2018-01-28T08:05:42.379Z,99.80
2018-01-28T08:08:26.928Z,99.90
2018-01-28T08:11:00.064Z,99.90
2018-01-28T08:13:34.410Z,99.60
2018-01-28T08:19:07.498Z,99.90
2018-01-28T08:21:33.894Z,99.90
2018-01-28T08:24:00.445Z,99.90
2018-01-28T08:26:26.904Z,99.90
2018-01-28T08:28:54.227Z,99.90
2018-01-28T08:31:20.759Z,99.90
2018-01-28T08:33:47.145Z,99.90
2018-01-28T08:36:14.162Z,99.90
2018-01-28T08:38:40.721Z,99.90
2018-01-28T08:41:07.304Z,99.90
2018-01-28T08:43:50.907Z,99.90
2018-01-28T08:46:18.508Z,99.90
2018-01-28T08:48:45.046Z,99.90
2018-01-28T08:54:11.356Z,99.90
2018-01-28T08:56:37.729Z,99.90
2018-01-28T08:59:04.878Z,99.90
2018-01-28T09:01:31.315Z,99.90
2018-01-28T09:03:58.135Z,99.90
2018-01-28T09:06:26.530Z,99.90
2018-01-28T09:09:20.134Z,99.90
2018-01-28T09:11:49.295Z,99.90
2018-01-28T09:14:16.173Z,99.90
2018-01-28T09:16:49.187Z,99.90
2018-01-28T09:19:17.767Z,99.90
2018-01-28T09:21:44.252Z,99.90
2018-01-28T09:27:20.188Z,99.90
2018-01-28T09:29:46.889Z,99.90
2018-01-28T09:32:13.278Z,99.90
2018-01-28T09:34:59.026Z,99.90
2018-01-28T09:49:22.052Z,99.90
2018-01-28T09:51:51.551Z,99.90
2018-01-28T09:54:20.801Z,99.90
2018-01-28T09:57:08.728Z,99.90
2018-01-28T09:59:49.874Z,99.90
2018-01-28T10:05:42.983Z,99.90
2018-01-28T10:11:05.203Z,99.90
2018-01-28T10:13:31.723Z,99.90
2018-01-28T10:16:09.074Z,99.90
2018-01-28T10:21:13.140Z,99.90
2018-01-28T10:23:40.510Z,99.90
2018-01-28T10:26:09.686Z,99.90
2018-01-28T10:28:52.516Z,99.90
2018-01-28T11:38:50.169Z,98.50
2018-01-28T11:47:23.672Z,98.50
2018-01-28T11:49:53.043Z,98.10
2018-01-28T12:05:52.116Z,97.70
2018-01-28T12:08:38.666Z,97.70
2018-01-28T12:11:06.689Z,97.70
2018-01-28T12:13:33.404Z,97.50
2018-01-28T12:16:01.295Z,97.60
2018-01-28T12:18:29.387Z,97.60
2018-01-28T12:23:50.094Z,97.40
2018-01-28T12:26:21.264Z,97.50
2018-01-28T12:28:47.787Z,97.30
2018-01-28T12:31:17.147Z,97.10
2018-01-28T12:34:13.538Z,97.00
2018-01-28T12:36:50.465Z,97.50
2018-01-28T12:42:17.947Z,97.00
2018-01-28T12:44:47.744Z,97.00
2018-01-28T12:47:21.733Z,97.10
2018-01-28T12:49:54.057Z,97.20
2018-01-28T12:52:21.193Z,97.20
2018-01-28T12:54:55.284Z,97.00
2018-01-28T12:57:38.093Z,96.80
2018-01-28T13:00:12.128Z,97.00
2018-01-28T13:02:40.316Z,96.80
2018-01-28T13:05:21.112Z,96.90
2018-01-28T13:07:47.643Z,96.90
2018-01-28T13:10:17.523Z,96.50
2018-01-28T13:12:44.956Z,96.30
2018-01-28T13:15:12.682Z,96.50
2018-01-28T13:20:38.938Z,96.70
2018-01-28T13:26:07.439Z,96.40
2018-01-28T13:28:40.624Z,96.40
2018-01-28T13:40:17.162Z,96.40
2018-01-28T13:42:43.629Z,96.60
2018-01-28T13:51:10.474Z,96.20
2018-01-28T13:57:08.672Z,96.30
2018-01-28T14:05:41.257Z,96.30
2018-01-28T14:08:07.667Z,96.20
2018-01-28T14:11:15.000Z,96.10
2018-01-28T14:14:02.546Z,96.00
2018-01-28T14:16:39.554Z,96.10
2018-01-28T14:28:14.869Z,96.00
2018-01-28T14:30:41.399Z,95.90
2018-01-28T14:33:18.292Z,95.90
2018-01-28T14:38:48.322Z,96.30
2018-01-28T14:41:14.506Z,96.10
2018-01-28T14:43:54.894Z,96.10
2018-01-28T14:46:34.357Z,96.00
2018-01-28T14:52:00.178Z,95.70
2018-01-28T14:54:26.589Z,95.60
2018-01-28T14:56:53.294Z,95.80
2018-01-28T14:59:19.764Z,95.80
2018-01-28T15:04:45.878Z,95.80
2018-01-28T15:22:21.840Z,95.80
2018-01-28T15:28:08.816Z,95.80
2018-01-28T15:30:41.306Z,95.90
2018-01-28T15:33:07.476Z,95.90
2018-01-28T15:35:33.925Z,95.80
2018-01-28T15:38:00.530Z,96.10
2018-01-28T15:40:30.632Z,96.00
2018-01-28T15:45:57.106Z,95.80
2018-01-28T15:48:39.023Z,95.80
2018-01-28T15:51:05.558Z,95.70
2018-01-28T15:54:09.406Z,95.60
2018-01-28T15:56:36.737Z,95.60
2018-01-28T17:00:39.122Z,96.20
2018-01-28T17:03:11.344Z,96.40
2018-01-28T17:05:37.557Z,96.50
2018-01-28T17:11:04.712Z,96.50
2018-01-28T17:16:30.328Z,96.50
2018-01-28T17:21:56.896Z,96.70
2018-01-28T17:24:24.051Z,96.80
2018-01-28T17:30:08.997Z,97.00
2018-01-28T17:32:35.293Z,97.00
2018-01-28T17:35:01.724Z,97.00
2018-01-28T17:37:31.466Z,97.10
2018-01-28T17:43:06.560Z,97.30
2018-01-28T17:45:32.951Z,97.30
2018-01-28T17:48:09.520Z,97.40
2018-01-28T17:50:35.952Z,97.50
2018-01-28T17:53:02.505Z,97.50
2018-01-28T17:55:28.956Z,97.60
2018-01-28T17:58:00.592Z,97.70
2018-01-28T18:00:40.241Z,97.90
2018-01-28T18:03:07.143Z,97.90
2018-01-28T18:11:33.751Z,97.80
2018-01-28T18:17:09.351Z,98.10
2018-01-28T18:19:39.532Z,98.00
2018-01-28T18:22:09.345Z,97.90
2018-01-28T18:24:35.801Z,98.00
2018-01-28T18:27:02.274Z,98.30
2018-01-28T18:32:28.501Z,97.90
2018-01-28T18:34:54.881Z,98.30
2018-01-28T18:37:39.044Z,98.20
2018-01-28T18:40:07.235Z,98.50
2018-01-28T18:52:10.213Z,98.10
2018-01-28T18:57:36.572Z,98.10
2018-01-28T19:00:03.112Z,98.20
2018-01-28T19:11:48.632Z,98.60
2018-01-28T19:14:23.796Z,98.90
2018-01-28T19:17:09.074Z,98.70
2018-01-28T19:19:39.400Z,98.90
2018-01-28T19:22:06.380Z,98.90
2018-01-28T19:24:32.760Z,99.00
2018-01-28T19:35:58.300Z,98.90
2018-01-28T19:38:24.740Z,98.90
2018-01-28T19:40:51.172Z,99.00
2018-01-28T19:43:31.346Z,98.80
2018-01-28T19:46:10.821Z,98.80
2018-01-28T19:54:46.911Z,98.80
2018-01-28T20:00:13.173Z,98.90
2018-01-28T20:02:42.519Z,98.90
2018-01-28T20:08:05.668Z,98.80
2018-01-28T20:10:32.845Z,98.80
2018-01-28T20:13:38.583Z,98.90
2018-01-28T20:16:11.154Z,98.70
2018-01-28T20:18:37.453Z,98.60
2018-01-28T20:21:03.697Z,98.70
2018-01-28T20:23:29.956Z,98.60
2018-01-28T20:28:44.664Z,98.70
2018-01-28T20:40:40.588Z,98.60
2018-01-28T20:43:10.378Z,98.50
2018-01-28T20:48:41.281Z,98.50
2018-01-28T20:51:08.616Z,98.40
2018-01-28T20:56:38.871Z,98.40
2018-01-28T20:59:05.219Z,98.50
2018-01-28T21:01:31.584Z,98.50
2018-01-28T21:04:11.544Z,98.40
2018-01-28T21:06:37.923Z,98.30
2018-01-28T21:15:13.612Z,98.40
2018-01-28T21:23:40.569Z,98.20
2018-01-28T21:26:07.574Z,98.20
2018-01-28T21:28:40.770Z,98.10
2018-01-28T21:34:04.595Z,98.00
2018-01-28T21:42:30.108Z,97.80
2018-01-28T21:45:11.117Z,97.70
2018-01-28T21:47:37.506Z,97.70
2018-01-28T21:59:18.915Z,97.70
2018-01-28T22:02:03.483Z,97.60
2018-01-28T22:04:40.887Z,97.60
2018-01-28T22:07:07.278Z,97.60
2018-01-28T22:09:39.487Z,97.60
2018-01-28T22:12:05.935Z,97.50
2018-01-28T22:14:32.773Z,97.50
2018-01-28T22:17:08.604Z,97.60
2018-01-28T22:19:35.001Z,97.50
2018-01-28T22:22:01.599Z,97.60
2018-01-28T23:14:09.801Z,98.00
2018-01-28T23:22:38.268Z,98.10
2018-01-28T23:25:29.394Z,98.20
2018-01-28T23:27:55.735Z,98.20
2018-01-28T23:30:23.211Z,98.20
2018-01-28T23:33:11.272Z,98.30
2018-01-28T23:41:35.601Z,98.10
2018-01-28T23:47:13.628Z,98.20
2018-01-28T23:59:08.862Z,98.50
